Time;durP1;ratioP1;P1;durP2;ratioP2;P2;SDS_P1;SDS_P2;PMS_P1;PMS_P2;Temp;Humidity;BMP_temperature;BMP_pressure;BME280_temperature;BME280_humidity;BME280_pressure;Samples;Min_cycle;Max_cycle;Signal;HPM_P1;HPM_P2
2023/05/31 05:08:16;;;;;;;;;;;;;;;;;;5064688;28;19935;-47
2023/05/31 05:10:42;;;;;;;;;;;;;;;;;;5089035;28;20386;-50
2023/05/31 05:13:08;;;;;;;;;;;;;;;;;;5088876;28;19915;-46
2023/05/31 05:15:35;;;;;;;;;;;;;;;;;;5088835;28;19916;-47
2023/05/31 05:18:01;;;;;;;;;;;;;;;;;;5089054;28;19912;-46
2023/05/31 05:20:27;;;;;;;;;;;;;;;;;;5089102;28;20504;-47
2023/05/31 05:22:53;;;;;;;;;;;;;;;;;;5088781;28;19993;-46
2023/05/31 05:25:20;;;;;;;;;;;;;;;;;;5088954;28;19908;-47
2023/05/31 05:27:46;;;;;;;;;;;;;;;;;;5088886;28;19912;-46
2023/05/31 05:30:12;;;;;;;;;;;;;;;;;;5088873;28;20002;-46
2023/05/31 05:32:37;;;;;;;;;;;;;;;;;;5088744;28;20418;-49
2023/05/31 05:35:03;;;;;;;;;;;;;;;;;;5088815;28;19969;-48
2023/05/31 05:37:29;;;;;;;;;;;;;;;;;;5088562;28;20390;-46
2023/05/31 05:39:56;;;;;;;;;;;;;;;;;;5088602;28;20143;-47
2023/05/31 05:42:22;;;;;;;;;;;;;;;;;;5067012;28;19912;-49
2023/05/31 05:44:47;;;;;;;;;;;;;;;;;;5068161;28;20265;-47
2023/05/31 05:47:13;;;;;;;;;;;;;;;;;;5066364;28;20291;-46
2023/05/31 05:49:39;;;;;;;;;;;;;;;;;;5068155;28;19955;-47
2023/05/31 05:52:06;;;;;;;;;;;;;;;;;;5067573;28;20302;-47
2023/05/31 05:54:32;;;;;;;;;;;;;;;;;;5068166;28;19946;-47
2023/05/31 05:56:58;;;;;;;;;;;;;;;;;;5067506;28;20330;-46
2023/05/31 05:59:24;;;;;;;;;;;;;;;;;;5067740;28;20363;-48
2023/05/31 06:01:50;;;;;;;;;;;;;;;;;;5067769;28;20030;-47
2023/05/31 06:04:17;;;;;;;;;;;;;;;;;;5068039;28;20277;-46
2023/05/31 06:06:44;;;;;;;;;;;;;;;;;;5066615;28;19908;-47
2023/05/31 06:09:09;;;;;;;;;;;;;;;;;;5061035;28;20551;-46
2023/05/31 06:11:35;;;;;;;;;;;;;;;;;;5064082;28;19924;-46
2023/05/31 06:14:01;;;;;;;;;;;;;;;;;;5068925;28;19967;-39
2023/05/31 06:16:27;;;;;;;;;;;;;;;;;;5077026;28;19908;-38
2023/05/31 06:18:53;;;;;;;;;;;;;;;;;;5089209;28;19919;-38
2023/05/31 06:21:19;;;;;;;;;;;;;;;;;;5075883;28;19912;-38
2023/05/31 06:23:45;;;;;;;;;;;;;;;;;;5068853;28;19920;-39
2023/05/31 06:26:11;;;;;;;;;;;;;;;;;;5069253;28;19908;-39
2023/05/31 06:28:37;;;;;;;;;;;;;;;;;;5068784;28;19995;-38
2023/05/31 06:31:03;;;;;;;;;;;;;;;;;;5062040;28;20040;-39
2023/05/31 06:33:29;;;;;;;;;;;;;;;;;;5049483;28;19940;-38
2023/05/31 06:35:55;;;;;;;;;;;;;;;;;;5049002;28;20315;-38
2023/05/31 06:38:21;;;;;;;;;;;;;;;;;;5060926;28;19913;-39
2023/05/31 06:40:47;;;;;;;;;;;;;;;;;;5068333;28;19920;-39
2023/05/31 06:43:15;;;;;;;;;;;;;;;;;;5049527;28;19990;-39
2023/05/31 06:45:41;;;;;;;;;;;;;;;;;;5068588;28;19912;-39
2023/05/31 06:48:08;;;;;;;;;;;;;;;;;;5067910;28;19913;-39
2023/05/31 06:50:34;;;;;;;;;;;;;;;;;;5067687;28;19923;-39
2023/05/31 06:53:00;;;;;;;;;;;;;;;;;;5069173;28;19912;-38
2023/05/31 06:55:26;;;;;;;;;;;;;;;;;;5068856;28;19913;-38
2023/05/31 06:57:52;;;;;;;;;;;;;;;;;;5068722;28;19921;-39
2023/05/31 07:00:18;;;;;;;;;;;;;;;;;;5067168;28;19919;-39
2023/05/31 07:02:44;;;;;;;;;;;;;;;;;;5068580;28;20445;-39
2023/05/31 07:05:10;;;;;;;;;;;;;;;;;;5055023;28;19962;-38
2023/05/31 07:07:36;;;;;;;;;;;;;;;;;;5069959;28;19952;-39
2023/05/31 07:10:03;;;;;;;;;;;;;;;;;;5065970;28;20421;-38
2023/05/31 07:12:28;;;;;;;;;;;;;;;;;;5066373;28;19917;-39
2023/05/31 07:14:54;;;;;;;;;;;;;;;;;;5051341;28;19970;-38
2023/05/31 07:17:21;;;;;;;;;;;;;;;;;;5051062;28;19944;-39
2023/05/31 07:19:47;;;;;;;;;;;;;;;;;;5055708;28;19936;-39
2023/05/31 07:22:13;;;;;;;;;;;;;;;;;;5070462;28;20458;-39
2023/05/31 07:24:39;;;;;;;;;;;;;;;;;;5069110;28;19913;-39
2023/05/31 07:27:07;;;;;;;;;;;;;;;;;;5069033;28;20011;-39
2023/05/31 07:29:33;;;;;;;;;;;;;;;;;;5049234;28;19967;-38
2023/05/31 07:31:59;;;;;;;;;;;;;;;;;;5065686;28;19917;-38
2023/05/31 07:34:25;;;;;;;;;;;;;;;;;;5068717;28;19921;-38
2023/05/31 07:36:51;;;;;;;;;;;;;;;;;;5069233;28;19943;-39
2023/05/31 07:39:18;;;;;;;;;;;;;;;;;;5069087;28;20006;-39
2023/05/31 07:41:45;;;;;;;;;;;;;;;;;;5069354;28;20357;-39
2023/05/31 07:44:11;;;;;;;;;;;;;;;;;;5054145;28;19912;-39
2023/05/31 07:46:37;;;;;;;;;;;;;;;;;;5059586;28;20410;-39
2023/05/31 07:49:03;;;;;;;;;;;;;;;;;;5075926;28;19923;-39
2023/05/31 07:51:28;;;;;;;;;;;;;;;;;;5070025;28;19913;-38
2023/05/31 07:53:55;;;;;;;;;;;;;;;;;;5069796;28;20413;-38
2023/05/31 07:56:21;;;;;;;;;;;;;;;;;;5058606;28;19983;-39
2023/05/31 07:58:47;;;;;;;;;;;;;;;;;;5066910;28;20461;-38
2023/05/31 08:01:13;;;;;;;;;;;;;;;;;;5073079;28;19916;-38
2023/05/31 08:03:38;;;;;;;;;;;;;;;;;;5069162;28;19965;-46
2023/05/31 08:06:04;;;;;;;;;;;;;;;;;;5070693;28;19979;-47
2023/05/31 08:08:32;;;;;;;;;;;;;;;;;;5068634;28;19938;-46
2023/05/31 08:10:58;;;;;;;;;;;;;;;;;;5070558;28;19916;-46
2023/05/31 08:13:24;;;;;;;;;;;;;;;;;;5070619;28;19913;-47
2023/05/31 08:15:52;;;;;;;;;;;;;;;;;;5069742;28;19924;-46
2023/05/31 08:18:17;;;;;;;;;;;;;;;;;;5071121;28;19908;-46
2023/05/31 08:20:43;;;;;;;;;;;;;;;;;;5091504;28;20560;-46
2023/05/31 08:23:09;;;;;;;;;;;;;;;;;;5085087;28;20003;-46
2023/05/31 08:25:35;;;;;;;;;;;;;;;;;;5083627;28;19995;-46
2023/05/31 08:28:01;;;;;;;;;;;;;;;;;;5090254;28;19915;-48
2023/05/31 08:30:27;;;;;;;;;;;;;;;;;;5070184;28;19912;-46
2023/05/31 08:32:53;;;;;;;;;;;;;;;;;;5069089;28;19912;-46
2023/05/31 08:35:19;;;;;;;;;;;;;;;;;;5070344;28;19912;-46
2023/05/31 08:37:45;;;;;;;;;;;;;;;;;;5082310;28;19958;-49
2023/05/31 08:40:11;;;;;;;;;;;;;;;;;;5091137;28;19916;-45
2023/05/31 08:42:37;;;;;;;;;;;;;;;;;;5090360;28;19908;-46
2023/05/31 08:45:03;;;;;;;;;;;;;;;;;;5089819;28;19931;-45
2023/05/31 08:47:29;;;;;;;;;;;;;;;;;;5090272;28;19916;-47
2023/05/31 08:49:55;;;;;;;;;;;;;;;;;;5072265;28;19932;-46
2023/05/31 08:52:21;;;;;;;;;;;;;;;;;;5058733;28;20292;-45
2023/05/31 08:54:47;;;;;;;;;;;;;;;;;;5051175;28;19920;-47
2023/05/31 08:57:13;;;;;;;;;;;;;;;;;;5058480;28;19920;-46
2023/05/31 08:59:41;;;;;;;;;;;;;;;;;;5068029;28;21608;-47
2023/05/31 09:02:07;;;;;;;;;;;;;;;;;;5073076;28;19912;-46
2023/05/31 09:04:33;;;;;;;;;;;;;;;;;;5066095;28;19962;-48
2023/05/31 09:07:01;;;;;;;;;;;;;;;;;;5058236;28;19967;-50
2023/05/31 09:09:27;;;;;;;;;;;;;;;;;;5064599;28;20359;-49
2023/05/31 09:11:53;;;;;;;;;;;;;;;;;;5063040;28;19923;-46
2023/05/31 09:14:19;;;;;;;;;;;;;;;;;;5064610;28;19990;-46
2023/05/31 09:16:45;;;;;;;;;;;;;;;;;;5072816;28;19920;-46
2023/05/31 09:19:10;;;;;;;;;;;;;;;;;;5065747;28;19947;-47
2023/05/31 09:21:36;;;;;;;;;;;;;;;;;;5067917;28;19982;-48
2023/05/31 09:24:02;;;;;;;;;;;;;;;;;;5079716;28;19920;-46
2023/05/31 09:26:28;;;;;;;;;;;;;;;;;;5068456;28;19909;-47
2023/05/31 09:28:54;;;;;;;;;;;;;;;;;;5072665;28;19931;-46
2023/05/31 09:31:20;;;;;;;;;;;;;;;;;;5075835;28;19924;-46
2023/05/31 09:33:47;;;;;;;;;;;;;;;;;;5061709;28;19965;-46
2023/05/31 09:36:14;;;;;;;;;;;;;;;;;;5059250;28;19928;-46
2023/05/31 09:38:40;;;;;;;;;;;;;;;;;;5053681;28;20435;-46
2023/05/31 09:41:06;;;;;;;;;;;;;;;;;;5057418;28;19924;-45
2023/05/31 09:43:31;;;;;;;;;;;;;;;;;;5066254;28;19913;-45
2023/05/31 09:45:58;;;;;;;;;;;;;;;;;;5068723;28;19927;-45
2023/05/31 09:48:23;;;;;;;;;;;;;;;;;;5068194;28;20279;-46
2023/05/31 09:50:50;;;;;;;;;;;;;;;;;;5076669;28;19920;-45
2023/05/31 09:53:16;;;;;;;;;;;;;;;;;;5068173;28;19966;-46
2023/05/31 09:55:42;;;;;;;;;;;;;;;;;;5066759;28;20017;-45
2023/05/31 09:58:08;;;;;;;;;;;;;;;;;;5066530;28;19912;-47
2023/05/31 10:00:34;;;;;;;;;;;;;;;;;;5067032;28;19917;-49
2023/05/31 10:03:00;;;;;;;;;;;;;;;;;;5064556;28;19943;-46
2023/05/31 10:05:26;;;;;;;;;;;;;;;;;;5068302;28;20390;-45
2023/05/31 10:07:52;;;;;;;;;;;;;;;;;;5064166;28;19958;-48
2023/05/31 10:10:20;;;;;;;;;;;;;;;;;;5066681;28;19939;-47
2023/05/31 10:12:46;;;;;;;;;;;;;;;;;;5054688;28;19909;-45
2023/05/31 10:15:13;;;;;;;;;;;;;;;;;;5066644;28;19950;-46
2023/05/31 10:17:40;;;;;;;;;;;;;;;;;;5062970;28;19916;-48
2023/05/31 10:20:06;;;;;;;;;;;;;;;;;;5065639;28;19921;-46
2023/05/31 10:22:32;;;;;;;;;;;;;;;;;;5045648;28;19913;-48
2023/05/31 10:24:58;;;;;;;;;;;;;;;;;;5066434;28;19919;-47
2023/05/31 10:27:23;;;;;;;;;;;;;;;;;;5057014;28;19912;-48
2023/05/31 10:29:52;;;;;;;;;;;;;;;;;;5055061;28;19938;-47
2023/05/31 10:32:18;;;;;;;;;;;;;;;;;;5066857;28;19957;-45
2023/05/31 10:34:43;;;;;;;;;;;;;;;;;;5066513;28;19999;-45
2023/05/31 10:37:09;;;;;;;;;;;;;;;;;;5065591;28;20033;-45
2023/05/31 10:39:35;;;;;;;;;;;;;;;;;;5061063;28;19916;-45
2023/05/31 10:42:01;;;;;;;;;;;;;;;;;;5059455;28;19942;-45
2023/05/31 10:44:28;;;;;;;;;;;;;;;;;;5056039;28;19912;-45
2023/05/31 10:46:54;;;;;;;;;;;;;;;;;;5067500;28;19927;-45
2023/05/31 10:49:20;;;;;;;;;;;;;;;;;;5057842;28;19921;-45
2023/05/31 10:51:46;;;;;;;;;;;;;;;;;;5064549;28;20493;-47
2023/05/31 10:54:12;;;;;;;;;;;;;;;;;;5052854;28;19913;-47
2023/05/31 10:56:38;;;;;;;;;;;;;;;;;;5046739;28;19916;-46
2023/05/31 10:59:05;;;;;;;;;;;;;;;;;;5047992;28;19921;-46
2023/05/31 11:01:31;;;;;;;;;;;;;;;;;;5058580;28;20011;-45
2023/05/31 11:03:57;;;;;;;;;;;;;;;;;;5053016;28;20011;-50
2023/05/31 11:06:25;;;;;;;;;;;;;;;;;;5056541;28;19956;-47
2023/05/31 11:08:50;;;;;;;;;;;;;;;;;;5059802;28;19930;-47
2023/05/31 11:11:16;;;;;;;;;;;;;;;;;;5064242;28;19922;-47
2023/05/31 11:13:42;;;;;;;;;;;;;;;;;;5063967;28;19908;-47
2023/05/31 11:16:08;;;;;;;;;;;;;;;;;;5058330;28;20490;-47
2023/05/31 11:18:34;;;;;;;;;;;;;;;;;;5064669;28;19999;-47
2023/05/31 11:21:01;;;;;;;;;;;;;;;;;;5064099;28;20375;-46
2023/05/31 11:23:27;;;;;;;;;;;;;;;;;;5064734;28;20383;-47
2023/05/31 11:25:53;;;;;;;;;;;;;;;;;;5063579;28;20346;-48
2023/05/31 11:28:19;;;;;;;;;;;;;;;;;;5064500;28;19909;-47
2023/05/31 11:30:46;;;;;;;;;;;;;;;;;;5064883;28;19913;-46
2023/05/31 11:33:12;;;;;;;;;;;;;;;;;;5061554;28;19913;-47
2023/05/31 11:35:39;;;;;;;;;;;;;;;;;;5056786;28;19913;-48
2023/05/31 11:38:05;;;;;;;;;;;;;;;;;;5044794;28;19908;-48
2023/05/31 11:40:32;;;;;;;;;;;;;;;;;;5049915;28;19924;-46
2023/05/31 11:42:58;;;;;;;;;;;;;;;;;;5059806;28;19920;-45
2023/05/31 11:45:24;;;;;;;;;;;;;;;;;;5064062;28;19909;-46
2023/05/31 11:47:50;;;;;;;;;;;;;;;;;;5045802;28;19958;-47
2023/05/31 11:50:19;;;;;;;;;;;;;;;;;;5065548;28;20451;-47
2023/05/31 11:52:45;;;;;;;;;;;;;;;;;;5067308;28;19913;-46
2023/05/31 11:55:11;;;;;;;;;;;;;;;;;;5066324;28;20417;-47
2023/05/31 11:57:37;;;;;;;;;;;;;;;;;;5049800;28;19909;-46
2023/05/31 12:00:11;;;;;;;;;;;;;;;;;;5067065;28;19916;-46
2023/05/31 12:02:37;;;;;;;;;;;;;;;;;;5049391;28;19913;-47
2023/05/31 12:05:04;;;;;;;;;;;;;;;;;;5047275;28;20007;-46
2023/05/31 12:07:30;;;;;;;;;;;;;;;;;;5047413;28;20399;-45
2023/05/31 12:09:57;;;;;;;;;;;;;;;;;;5046520;28;19978;-47
2023/05/31 12:12:23;;;;;;;;;;;;;;;;;;5048334;28;19913;-45
2023/05/31 12:14:49;;;;;;;;;;;;;;;;;;5064094;28;19917;-46
2023/05/31 12:17:15;;;;;;;;;;;;;;;;;;5067186;28;20418;-46
2023/05/31 12:19:40;;;;;;;;;;;;;;;;;;5049533;28;19965;-46
2023/05/31 12:22:06;;;;;;;;;;;;;;;;;;5065589;28;20402;-45
2023/05/31 12:24:32;;;;;;;;;;;;;;;;;;5058218;28;19912;-47
2023/05/31 12:26:58;;;;;;;;;;;;;;;;;;5053712;28;19909;-47
2023/05/31 12:29:26;;;;;;;;;;;;;;;;;;5047310;28;19924;-50
2023/05/31 12:31:52;;;;;;;;;;;;;;;;;;5048014;28;19913;-50
2023/05/31 12:34:18;;;;;;;;;;;;;;;;;;5028810;28;19936;-48
2023/05/31 12:36:45;;;;;;;;;;;;;;;;;;5027948;28;20701;-50
2023/05/31 12:39:11;;;;;;;;;;;;;;;;;;5046640;28;19912;-50
2023/05/31 12:41:37;;;;;;;;;;;;;;;;;;5062326;28;20375;-50
2023/05/31 12:44:03;;;;;;;;;;;;;;;;;;5066528;28;19912;-50
2023/05/31 12:46:29;;;;;;;;;;;;;;;;;;5066774;28;20338;-49
2023/05/31 12:48:55;;;;;;;;;;;;;;;;;;5066194;28;19909;-49
2023/05/31 12:51:22;;;;;;;;;;;;;;;;;;5064916;28;19917;-48
2023/05/31 12:53:49;;;;;;;;;;;;;;;;;;5066588;28;20007;-47
2023/05/31 12:56:15;;;;;;;;;;;;;;;;;;5066229;28;19919;-48
2023/05/31 12:58:41;;;;;;;;;;;;;;;;;;5064780;28;20340;-51
2023/05/31 13:01:08;;;;;;;;;;;;;;;;;;5065990;28;19916;-48
2023/05/31 13:03:34;;;;;;;;;;;;;;;;;;5066221;28;19912;-48
2023/05/31 13:06:00;;;;;;;;;;;;;;;;;;5065946;28;20414;-50
2023/05/31 13:08:26;;;;;;;;;;;;;;;;;;5065712;28;19947;-47
2023/05/31 13:10:53;;;;;;;;;;;;;;;;;;5064589;28;20387;-47
2023/05/31 13:13:19;;;;;;;;;;;;;;;;;;5047934;28;20011;-50
2023/05/31 13:15:45;;;;;;;;;;;;;;;;;;5047796;28;20014;-47
2023/05/31 13:18:12;;;;;;;;;;;;;;;;;;5048031;28;20038;-50
2023/05/31 13:20:38;;;;;;;;;;;;;;;;;;5065406;28;19920;-48
2023/05/31 13:23:06;;;;;;;;;;;;;;;;;;5065761;28;19912;-50
2023/05/31 13:25:33;;;;;;;;;;;;;;;;;;5065517;28;19958;-50
2023/05/31 13:27:59;;;;;;;;;;;;;;;;;;5056340;28;19913;-47
2023/05/31 13:30:27;;;;;;;;;;;;;;;;;;5065779;28;19931;-51
2023/05/31 13:32:53;;;;;;;;;;;;;;;;;;5065962;28;19913;-47
2023/05/31 13:35:20;;;;;;;;;;;;;;;;;;5065082;28;19917;-47
2023/05/31 13:37:46;;;;;;;;;;;;;;;;;;5064600;28;19912;-48
2023/05/31 13:40:11;;;;;;;;;;;;;;;;;;5065360;28;20077;-48
2023/05/31 13:42:38;;;;;;;;;;;;;;;;;;5066325;28;19913;-51
2023/05/31 13:45:04;;;;;;;;;;;;;;;;;;5065018;28;19927;-49
2023/05/31 13:47:30;;;;;;;;;;;;;;;;;;5064625;28;20821;-49
2023/05/31 13:49:56;;;;;;;;;;;;;;;;;;5060079;28;19916;-48
2023/05/31 13:52:23;;;;;;;;;;;;;;;;;;5065590;28;19912;-48
2023/05/31 13:54:49;;;;;;;;;;;;;;;;;;5064641;28;19919;-48
2023/05/31 13:57:15;;;;;;;;;;;;;;;;;;5065673;28;19996;-49
2023/05/31 13:59:41;;;;;;;;;;;;;;;;;;5064066;28;19913;-51
2023/05/31 14:02:08;;;;;;;;;;;;;;;;;;5040594;28;19963;-49
2023/05/31 14:04:34;;;;;;;;;;;;;;;;;;5052670;28;19923;-47
2023/05/31 14:07:01;;;;;;;;;;;;;;;;;;5051098;28;19916;-49
2023/05/31 14:09:26;;;;;;;;;;;;;;;;;;5060270;28;19981;-50
2023/05/31 14:11:52;;;;;;;;;;;;;;;;;;5065203;28;19994;-49
2023/05/31 14:14:18;;;;;;;;;;;;;;;;;;5064332;28;19913;-48
2023/05/31 14:16:44;;;;;;;;;;;;;;;;;;5059938;28;19932;-49
2023/05/31 14:19:10;;;;;;;;;;;;;;;;;;5059775;28;19924;-48
2023/05/31 14:21:36;;;;;;;;;;;;;;;;;;5040466;28;19916;-48
2023/05/31 14:24:03;;;;;;;;;;;;;;;;;;5041165;28;20303;-50
2023/05/31 14:26:29;;;;;;;;;;;;;;;;;;5069134;28;19912;-51
2023/05/31 14:28:55;;;;;;;;;;;;;;;;;;5052547;28;20537;-49
2023/05/31 14:31:21;;;;;;;;;;;;;;;;;;5066143;28;19919;-48
2023/05/31 14:33:47;;;;;;;;;;;;;;;;;;5065838;28;19916;-49
2023/05/31 14:36:13;;;;;;;;;;;;;;;;;;5063258;28;19921;-50
2023/05/31 14:38:39;;;;;;;;;;;;;;;;;;5065853;28;19909;-48
2023/05/31 14:41:05;;;;;;;;;;;;;;;;;;5066698;28;19913;-48
2023/05/31 14:43:31;;;;;;;;;;;;;;;;;;5054500;28;19912;-49
2023/05/31 14:45:57;;;;;;;;;;;;;;;;;;5047048;28;19970;-40
2023/05/31 14:48:23;;;;;;;;;;;;;;;;;;5067054;28;19912;-40
2023/05/31 14:50:48;;;;;;;;;;;;;;;;;;5044012;28;20007;-40
2023/05/31 14:53:14;;;;;;;;;;;;;;;;;;5049872;28;19923;-40
2023/05/31 14:55:40;;;;;;;;;;;;;;;;;;5066352;28;19926;-40
2023/05/31 14:58:07;;;;;;;;;;;;;;;;;;5066177;28;19908;-40
2023/05/31 15:00:35;;;;;;;;;;;;;;;;;;5059935;28;20484;-40
2023/05/31 15:03:01;;;;;;;;;;;;;;;;;;5049890;28;20010;-40
2023/05/31 15:05:26;;;;;;;;;;;;;;;;;;5059694;28;19963;-41
2023/05/31 15:07:52;;;;;;;;;;;;;;;;;;5062358;28;19935;-40
2023/05/31 15:10:18;;;;;;;;;;;;;;;;;;5065548;28;19962;-40
2023/05/31 15:12:46;;;;;;;;;;;;;;;;;;5065035;28;19916;-40
2023/05/31 15:15:14;;;;;;;;;;;;;;;;;;5063911;28;19952;-40
2023/05/31 15:17:41;;;;;;;;;;;;;;;;;;5065293;28;19916;-40
2023/05/31 15:20:07;;;;;;;;;;;;;;;;;;5066090;28;20007;-40
2023/05/31 15:22:35;;;;;;;;;;;;;;;;;;5047446;28;19995;-40
2023/05/31 15:25:00;;;;;;;;;;;;;;;;;;5067123;28;19974;-40
2023/05/31 15:27:26;;;;;;;;;;;;;;;;;;5069224;28;20334;-40
2023/05/31 15:29:52;;;;;;;;;;;;;;;;;;5068441;28;19924;-40
2023/05/31 15:32:18;;;;;;;;;;;;;;;;;;5069202;28;20273;-39
2023/05/31 15:34:44;;;;;;;;;;;;;;;;;;5060548;28;19956;-40
2023/05/31 15:37:10;;;;;;;;;;;;;;;;;;5068825;28;19916;-40
2023/05/31 15:39:36;;;;;;;;;;;;;;;;;;5068771;28;20456;-40
2023/05/31 15:42:03;;;;;;;;;;;;;;;;;;5061578;28;19916;-42
2023/05/31 15:44:30;;;;;;;;;;;;;;;;;;5066196;28;19948;-41
2023/05/31 15:46:56;;;;;;;;;;;;;;;;;;5052308;28;19920;-40
2023/05/31 15:49:23;;;;;;;;;;;;;;;;;;5049803;28;20311;-40
2023/05/31 15:51:49;;;;;;;;;;;;;;;;;;5067877;28;19923;-41
2023/05/31 15:54:15;;;;;;;;;;;;;;;;;;5035536;28;19913;-41
2023/05/31 15:56:41;;;;;;;;;;;;;;;;;;5058388;28;20314;-41
2023/05/31 15:59:08;;;;;;;;;;;;;;;;;;5089358;28;19912;-41
2023/05/31 16:01:34;;;;;;;;;;;;;;;;;;5061108;28;19923;-41
2023/05/31 16:04:00;;;;;;;;;;;;;;;;;;5055955;28;20387;-41
2023/05/31 16:06:26;;;;;;;;;;;;;;;;;;5066364;28;19927;-41
2023/05/31 16:08:55;;;;;;;;;;;;;;;;;;5061259;28;19924;-40
2023/05/31 16:11:20;;;;;;;;;;;;;;;;;;5057581;28;19923;-41
2023/05/31 16:13:46;;;;;;;;;;;;;;;;;;5060209;28;19912;-41
2023/05/31 16:16:13;;;;;;;;;;;;;;;;;;5068250;28;20295;-41
2023/05/31 16:18:39;;;;;;;;;;;;;;;;;;5049512;28;19912;-41
2023/05/31 16:21:05;;;;;;;;;;;;;;;;;;5046858;28;20277;-41
2023/05/31 16:23:31;;;;;;;;;;;;;;;;;;5061911;28;20419;-41
2023/05/31 16:25:56;;;;;;;;;;;;;;;;;;5065887;28;19934;-41
2023/05/31 16:28:22;;;;;;;;;;;;;;;;;;5052915;28;19913;-41
2023/05/31 16:30:48;;;;;;;;;;;;;;;;;;5055615;28;19921;-41
2023/05/31 16:33:14;;;;;;;;;;;;;;;;;;5037822;28;19917;-42
2023/05/31 16:35:40;;;;;;;;;;;;;;;;;;5062339;28;20426;-41
2023/05/31 16:38:06;;;;;;;;;;;;;;;;;;5067550;28;19909;-42
2023/05/31 16:40:33;;;;;;;;;;;;;;;;;;5036257;28;20351;-41
2023/05/31 16:43:00;;;;;;;;;;;;;;;;;;5046437;28;20295;-41
2023/05/31 16:45:26;;;;;;;;;;;;;;;;;;5056966;28;19912;-42
2023/05/31 16:47:51;;;;;;;;;;;;;;;;;;5056099;28;19919;-41
2023/05/31 16:50:17;;;;;;;;;;;;;;;;;;5066084;28;20002;-41
2023/05/31 16:52:44;;;;;;;;;;;;;;;;;;5045027;28;19963;-41
2023/05/31 16:55:10;;;;;;;;;;;;;;;;;;5031509;28;20516;-41
2023/05/31 16:57:36;;;;;;;;;;;;;;;;;;5050868;28;20272;-41
2023/05/31 17:00:02;;;;;;;;;;;;;;;;;;5061302;28;19912;-41
2023/05/31 17:02:28;;;;;;;;;;;;;;;;;;5069064;28;19912;-42
2023/05/31 17:04:54;;;;;;;;;;;;;;;;;;5076694;28;19916;-42
2023/05/31 17:07:20;;;;;;;;;;;;;;;;;;5064684;28;19921;-41
2023/05/31 17:09:46;;;;;;;;;;;;;;;;;;5047668;28;20492;-41
2023/05/31 17:12:12;;;;;;;;;;;;;;;;;;5047882;28;19955;-43
2023/05/31 17:14:38;;;;;;;;;;;;;;;;;;5048403;28;19909;-41
2023/05/31 17:17:04;;;;;;;;;;;;;;;;;;5057412;28;20003;-41
2023/05/31 17:19:30;;;;;;;;;;;;;;;;;;5076287;28;19948;-41
2023/05/31 17:21:57;;;;;;;;;;;;;;;;;;5043679;28;19917;-42
2023/05/31 17:24:23;;;;;;;;;;;;;;;;;;5058219;28;19909;-42
2023/05/31 17:26:49;;;;;;;;;;;;;;;;;;5067349;28;19958;-42
2023/05/31 17:29:17;;;;;;;;;;;;;;;;;;5067584;28;19977;-41
2023/05/31 17:31:46;;;;;;;;;;;;;;;;;;5037725;28;20016;-41
2023/05/31 17:34:12;;;;;;;;;;;;;;;;;;5054151;28;20358;-41
2023/05/31 17:36:38;;;;;;;;;;;;;;;;;;5065440;28;20023;-42
2023/05/31 17:39:04;;;;;;;;;;;;;;;;;;5065849;28;19916;-41
2023/05/31 17:41:30;;;;;;;;;;;;;;;;;;5061360;28;19974;-42
2023/05/31 17:43:56;;;;;;;;;;;;;;;;;;5064014;28;19912;-42
2023/05/31 17:46:22;;;;;;;;;;;;;;;;;;5053276;28;20045;-42
2023/05/31 17:48:48;;;;;;;;;;;;;;;;;;5063430;28;19935;-42
2023/05/31 17:51:14;;;;;;;;;;;;;;;;;;5062202;28;19916;-41
2023/05/31 17:53:40;;;;;;;;;;;;;;;;;;5055233;28;19931;-41
2023/05/31 17:56:07;;;;;;;;;;;;;;;;;;5060554;28;20374;-43
2023/05/31 17:58:33;;;;;;;;;;;;;;;;;;5064050;28;19916;-41
2023/05/31 18:00:59;;;;;;;;;;;;;;;;;;5057164;28;20299;-42
2023/05/31 18:03:26;;;;;;;;;;;;;;;;;;5054401;28;19916;-42
2023/05/31 18:05:53;;;;;;;;;;;;;;;;;;5055556;28;19916;-42
2023/05/31 18:08:21;;;;;;;;;;;;;;;;;;5059532;28;19952;-42
2023/05/31 18:10:47;;;;;;;;;;;;;;;;;;5047651;28;19942;-42
2023/05/31 18:13:13;;;;;;;;;;;;;;;;;;5052192;28;19913;-41
2023/05/31 18:15:39;;;;;;;;;;;;;;;;;;5058500;28;19943;-42
2023/05/31 18:18:05;;;;;;;;;;;;;;;;;;5059623;28;19967;-42
2023/05/31 18:20:31;;;;;;;;;;;;;;;;;;5062191;28;19922;-42
2023/05/31 18:22:57;;;;;;;;;;;;;;;;;;5030348;28;19960;-42
2023/05/31 18:25:28;;;;;;;;;;;;;;;;;;5054527;28;19955;-42
2023/05/31 18:27:55;;;;;;;;;;;;;;;;;;5060114;28;19927;-41
2023/05/31 18:30:21;;;;;;;;;;;;;;;;;;5050589;28;20007;-42
2023/05/31 18:32:47;;;;;;;;;;;;;;;;;;5058156;28;19912;-42
2023/05/31 18:35:13;;;;;;;;;;;;;;;;;;5058735;28;20873;-41
2023/05/31 18:37:39;;;;;;;;;;;;;;;;;;5063740;28;20299;-41
2023/05/31 18:40:05;;;;;;;;;;;;;;;;;;5063259;28;19917;-42
2023/05/31 18:42:32;;;;;;;;;;;;;;;;;;5062799;28;20394;-43
2023/05/31 18:44:58;;;;;;;;;;;;;;;;;;5039091;28;20375;-43
2023/05/31 18:47:25;;;;;;;;;;;;;;;;;;5042474;28;19923;-43
2023/05/31 18:49:51;;;;;;;;;;;;;;;;;;5037556;28;19913;-44
2023/05/31 18:52:18;;;;;;;;;;;;;;;;;;5063639;28;20007;-44
2023/05/31 18:54:45;;;;;;;;;;;;;;;;;;5063214;28;19931;-43
2023/05/31 18:57:13;;;;;;;;;;;;;;;;;;5044869;28;19952;-42
2023/05/31 18:59:40;;;;;;;;;;;;;;;;;;5064898;28;20314;-42
2023/05/31 19:02:06;;;;;;;;;;;;;;;;;;5069400;28;20007;-43
2023/05/31 19:04:32;;;;;;;;;;;;;;;;;;5067418;28;19958;-43
2023/05/31 19:06:58;;;;;;;;;;;;;;;;;;5069843;28;19921;-43
2023/05/31 19:09:24;;;;;;;;;;;;;;;;;;5073883;28;20309;-43
2023/05/31 19:11:50;;;;;;;;;;;;;;;;;;5058803;28;19927;-45
2023/05/31 19:14:16;;;;;;;;;;;;;;;;;;5070163;28;20516;-43
2023/05/31 19:16:42;;;;;;;;;;;;;;;;;;5068461;28;19959;-43
2023/05/31 19:19:08;;;;;;;;;;;;;;;;;;5041882;28;19917;-42
2023/05/31 19:21:36;;;;;;;;;;;;;;;;;;5064979;28;19912;-42
2023/05/31 19:24:02;;;;;;;;;;;;;;;;;;5061969;28;20568;-43
2023/05/31 19:26:27;;;;;;;;;;;;;;;;;;5068130;28;19927;-43
2023/05/31 19:28:53;;;;;;;;;;;;;;;;;;5069412;28;19913;-44
2023/05/31 19:31:19;;;;;;;;;;;;;;;;;;5069975;28;19916;-42
2023/05/31 19:33:45;;;;;;;;;;;;;;;;;;5039011;28;19917;-42
2023/05/31 19:36:11;;;;;;;;;;;;;;;;;;5065365;28;19916;-42
2023/05/31 19:38:37;;;;;;;;;;;;;;;;;;5070231;28;19940;-43
2023/05/31 19:41:04;;;;;;;;;;;;;;;;;;5044235;28;19989;-42
2023/05/31 19:43:30;;;;;;;;;;;;;;;;;;5068683;28;20326;-42
2023/05/31 19:45:56;;;;;;;;;;;;;;;;;;5067120;28;20034;-42
2023/05/31 19:48:22;;;;;;;;;;;;;;;;;;5069047;28;19956;-42
2023/05/31 19:50:49;;;;;;;;;;;;;;;;;;5069548;28;19935;-43
2023/05/31 19:53:16;;;;;;;;;;;;;;;;;;5041090;28;19924;-43
2023/05/31 19:55:43;;;;;;;;;;;;;;;;;;5058117;28;19962;-43
2023/05/31 19:58:10;;;;;;;;;;;;;;;;;;5052855;28;19908;-42
2023/05/31 20:00:36;;;;;;;;;;;;;;;;;;5070413;28;19922;-42
2023/05/31 20:03:02;;;;;;;;;;;;;;;;;;5065490;28;19912;-42
2023/05/31 20:05:28;;;;;;;;;;;;;;;;;;5065862;28;20342;-42
2023/05/31 20:07:54;;;;;;;;;;;;;;;;;;5065268;28;20338;-43
2023/05/31 20:10:20;;;;;;;;;;;;;;;;;;5062057;28;20018;-43
2023/05/31 20:12:46;;;;;;;;;;;;;;;;;;5058721;28;19912;-42
2023/05/31 20:15:12;;;;;;;;;;;;;;;;;;5060560;28;20280;-43
2023/05/31 20:17:38;;;;;;;;;;;;;;;;;;5062153;28;19913;-43
2023/05/31 20:20:04;;;;;;;;;;;;;;;;;;5063401;28;20361;-44
2023/05/31 20:22:30;;;;;;;;;;;;;;;;;;5065904;28;20187;-42
2023/05/31 20:24:56;;;;;;;;;;;;;;;;;;5065099;28;20497;-42
2023/05/31 20:27:23;;;;;;;;;;;;;;;;;;5063535;28;19938;-43
2023/05/31 20:29:49;;;;;;;;;;;;;;;;;;5059092;28;20015;-42
2023/05/31 20:32:15;;;;;;;;;;;;;;;;;;5065971;28;20038;-44
2023/05/31 20:34:41;;;;;;;;;;;;;;;;;;5065001;28;20019;-44
2023/05/31 20:37:07;;;;;;;;;;;;;;;;;;5060920;28;19923;-43
2023/05/31 20:39:33;;;;;;;;;;;;;;;;;;5064829;28;19916;-44
2023/05/31 20:41:59;;;;;;;;;;;;;;;;;;5030257;28;20000;-44
2023/05/31 20:44:26;;;;;;;;;;;;;;;;;;5064523;28;19923;-44
2023/05/31 20:46:51;;;;;;;;;;;;;;;;;;5053602;28;19913;-42
2023/05/31 20:49:17;;;;;;;;;;;;;;;;;;5036313;28;19935;-43
2023/05/31 20:51:43;;;;;;;;;;;;;;;;;;5046425;28;19909;-43
2023/05/31 20:54:09;;;;;;;;;;;;;;;;;;5059418;28;19912;-42
2023/05/31 20:56:35;;;;;;;;;;;;;;;;;;5061818;28;20379;-43
2023/05/31 20:59:01;;;;;;;;;;;;;;;;;;5040335;28;19916;-43
2023/05/31 21:01:27;;;;;;;;;;;;;;;;;;5061296;28;19919;-43
2023/05/31 21:03:56;;;;;;;;;;;;;;;;;;5051339;28;20663;-43
2023/05/31 21:06:23;;;;;;;;;;;;;;;;;;5063128;28;19913;-42
2023/05/31 21:08:49;;;;;;;;;;;;;;;;;;5065147;28;20329;-43
2023/05/31 21:11:15;;;;;;;;;;;;;;;;;;5065519;28;19917;-43
2023/05/31 21:13:41;;;;;;;;;;;;;;;;;;5044801;28;19916;-44
2023/05/31 21:16:07;;;;;;;;;;;;;;;;;;5062499;28;20100;-43
2023/05/31 21:18:33;;;;;;;;;;;;;;;;;;5055670;28;19913;-44
2023/05/31 21:20:59;;;;;;;;;;;;;;;;;;5048589;28;19924;-44
2023/05/31 21:23:25;;;;;;;;;;;;;;;;;;5061850;28;20742;-43
2023/05/31 21:25:52;;;;;;;;;;;;;;;;;;5059909;28;20320;-43
2023/05/31 21:28:19;;;;;;;;;;;;;;;;;;5065773;28;20613;-43
2023/05/31 21:30:46;;;;;;;;;;;;;;;;;;5065806;28;19913;-42
2023/05/31 21:33:12;;;;;;;;;;;;;;;;;;5065727;28;19909;-44
2023/05/31 21:35:39;;;;;;;;;;;;;;;;;;5062714;28;19969;-43
2023/05/31 21:38:05;;;;;;;;;;;;;;;;;;5057376;28;19920;-43
2023/05/31 21:40:31;;;;;;;;;;;;;;;;;;5065489;28;19920;-42
2023/05/31 21:42:57;;;;;;;;;;;;;;;;;;5047353;28;19915;-43
2023/05/31 21:45:23;;;;;;;;;;;;;;;;;;5045668;28;19913;-41